Time;durP1;ratioP1;P1;durP2;ratioP2;P2;SDS_P1;SDS_P2;PMS_P1;PMS_P2;Temp;Humidity;BMP_temperature;BMP_pressure;BME280_temperature;BME280_humidity;BME280_pressure;Samples;Min_cycle;Max_cycle;Signal;HPM_P1;HPM_P2
2021/10/15 00:02:46;;;;;;;1999.90;999.90;;;;;;;14.28;76.29;101185.09;15719845;28;20148;-58
2021/10/15 00:10:19;;;;;;;1999.90;999.90;;;;;;;14.28;76.38;101176.69;15692679;28;20053;-59
2021/10/15 00:17:56;;;;;;;;;;;;;;;14.43;75.64;101176.00;15715026;28;20120;-60
2021/10/15 00:25:29;;;;;;;1999.90;999.90;;;;;;;14.30;76.00;101163.13;15683590;28;19920;-60
2021/10/15 00:33:04;;;;;;;1999.90;999.90;;;;;;;14.20;76.10;101143.91;15692061;28;20036;-58
2021/10/15 00:40:42;;;;;;;1999.90;999.90;;;;;;;14.18;76.10;101143.44;15695033;28;20053;-58
2021/10/15 00:48:16;;;;;;;1999.90;999.90;;;;;;;14.12;76.22;101136.41;15704388;28;20044;-56
2021/10/15 00:55:49;;;;;;;1999.90;999.90;;;;;;;14.26;75.84;101130.47;15731375;28;20064;-58
2021/10/15 01:03:28;;;;;;;1999.90;999.90;;;;;;;14.16;75.68;101123.31;15682257;28;20051;-57
2021/10/15 01:11:02;;;;;;;1999.90;999.90;;;;;;;14.28;74.80;101106.50;15723219;28;20057;-59
2021/10/15 01:18:41;;;;;;;1999.90;999.90;;;;;;;14.34;74.65;101098.66;15703314;28;20073;-57
2021/10/15 01:26:17;;;;;;;1999.90;999.90;;;;;;;14.31;74.38;101090.97;15669972;28;20045;-60
2021/10/15 01:33:51;;;;;;;1999.90;999.90;;;;;;;14.19;74.23;101074.91;15675198;28;20049;-57
2021/10/15 01:41:29;;;;;;;1999.90;999.90;;;;;;;14.30;74.05;101064.06;15638784;28;20049;-57
2021/10/15 01:49:01;;;;;;;1999.90;999.90;;;;;;;14.23;73.93;101058.19;15712042;28;20398;-58
2021/10/15 01:56:37;;;;;;;1999.90;999.90;;;;;;;14.21;73.74;101049.31;15694263;28;20045;-60
2021/10/15 02:04:14;;;;;;;1999.90;999.90;;;;;;;14.17;73.84;101037.94;15652414;28;20063;-60
2021/10/15 02:11:57;;;;;;;1999.90;999.90;;;;;;;14.20;73.36;101017.63;15698543;28;20052;-58
2021/10/15 02:19:34;;;;;;;1999.90;999.90;;;;;;;14.13;73.18;101018.19;15712224;28;20328;-60
2021/10/15 02:27:09;;;;;;;1999.90;999.90;;;;;;;14.20;72.98;101022.41;15706077;28;20078;-61
2021/10/15 02:34:44;;;;;;;1999.90;999.90;;;;;;;14.00;73.41;101008.13;15704636;28;20037;-61
2021/10/15 02:42:19;;;;;;;1999.90;999.90;;;;;;;13.92;73.31;101000.63;15698117;28;20079;-56
2021/10/15 02:49:53;;;;;;;1999.90;999.90;;;;;;;13.97;72.55;100985.56;15691881;28;20112;-61
2021/10/15 02:57:29;;;;;;;1999.90;999.90;;;;;;;13.97;72.33;100988.38;15721366;28;20110;-59
2021/10/15 03:05:03;;;;;;;1999.90;999.90;;;;;;;14.12;71.87;100977.28;15701102;28;20124;-61
2021/10/15 03:12:38;;;;;;;;;;;;;;;13.93;72.30;100951.78;15694185;28;20182;-60
2021/10/15 03:20:14;;;;;;;1999.90;999.90;;;;;;;14.06;72.02;100952.59;15683500;28;19920;-60
2021/10/15 03:27:54;;;;;;;1999.90;999.90;;;;;;;14.05;71.93;100948.16;15692585;28;20619;-59
2021/10/15 03:35:28;;;;;;;1999.90;999.90;;;;;;;13.92;72.08;100930.50;15679822;28;20045;-60
2021/10/15 03:43:07;;;;;;;1999.90;999.90;;;;;;;13.94;72.15;100938.56;15707801;28;20139;-59
2021/10/15 03:50:43;;;;;;;1999.90;999.90;;;;;;;13.99;71.94;100927.13;15725197;28;20144;-60
2021/10/15 03:58:21;;;;;;;1999.90;999.90;;;;;;;13.70;72.87;100923.38;15708663;28;20517;-58
2021/10/15 04:05:58;;;;;;;1999.90;999.90;;;;;;;13.63;73.45;100914.69;15677481;28;20121;-58
2021/10/15 04:13:32;;;;;;;1999.90;999.90;;;;;;;13.83;72.50;100910.97;15705811;28;20140;-61
2021/10/15 04:21:07;;;;;;;1999.90;999.90;;;;;;;13.85;72.46;100905.81;15703946;28;20071;-58
2021/10/15 04:28:41;;;;;;;1999.90;999.90;;;;;;;13.93;72.37;100892.88;15684822;28;20049;-58
2021/10/15 04:36:13;;;;;;;1999.90;999.90;;;;;;;13.83;72.29;100887.72;15713841;28;20047;-61
2021/10/15 04:43:47;;;;;;;1999.90;999.90;;;;;;;13.89;72.34;100871.50;15701073;28;20052;-60
2021/10/15 04:51:20;;;;;;;1999.90;999.90;;;;;;;13.87;71.99;100866.25;15715001;28;20057;-61
2021/10/15 04:58:54;;;;;;;1999.90;999.90;;;;;;;13.94;72.03;100848.78;15694792;28;20451;-59
2021/10/15 05:06:26;;;;;;;1999.90;999.90;;;;;;;13.90;72.05;100834.66;15706848;28;20041;-60
2021/10/15 05:14:01;;;;;;;1999.90;999.90;;;;;;;13.89;72.13;100826.63;15704253;28;20099;-61
2021/10/15 05:21:34;;;;;;;1999.90;999.90;;;;;;;13.91;71.98;100821.47;15701169;28;20139;-60
2021/10/15 05:29:07;;;;;;;1999.90;999.90;;;;;;;13.99;71.66;100803.69;15718385;28;20040;-57
2021/10/15 05:36:40;;;;;;;1999.90;999.90;;;;;;;14.00;71.67;100791.28;15673916;28;20053;-56
2021/10/15 05:44:14;;;;;;;1999.90;999.90;;;;;;;14.04;71.49;100783.78;15712527;28;20057;-58
2021/10/15 05:51:48;;;;;;;1999.90;999.90;;;;;;;14.04;71.18;100776.19;15713365;28;20071;-61
2021/10/15 05:59:22;;;;;;;1999.90;999.90;;;;;;;13.92;71.58;100769.78;15733554;28;20148;-62
2021/10/15 06:14:43;;;;;;;1999.90;999.90;;;;;;;14.27;70.44;100767.22;15733258;28;20059;-61
2021/10/15 06:22:16;;;;;;;1999.90;999.90;;;;;;;14.12;70.86;100752.78;15713811;28;20125;-59
2021/10/15 06:29:50;;;;;;;1999.90;999.90;;;;;;;14.21;70.17;100746.22;15679499;28;20351;-59
2021/10/15 06:37:23;;;;;;;1999.90;999.90;;;;;;;14.20;70.11;100753.00;15678409;28;20129;-57
2021/10/15 06:44:57;;;;;;;1999.90;999.90;;;;;;;14.37;69.79;100739.44;15681473;28;20045;-59
2021/10/15 06:52:36;;;;;;;1999.90;999.90;;;;;;;14.40;69.33;100738.75;15681470;28;20124;-56
2021/10/15 07:00:11;;;;;;;1999.90;999.90;;;;;;;14.45;69.16;100734.91;15669155;28;20040;-60
2021/10/15 07:07:44;;;;;;;1999.90;999.90;;;;;;;14.15;69.82;100721.19;15676565;28;20107;-56
2021/10/15 07:15:18;;;;;;;1999.90;999.90;;;;;;;14.48;68.89;100739.78;15677379;28;20414;-59
2021/10/15 07:22:50;;;;;;;1999.90;999.90;;;;;;;14.63;68.26;100739.00;15676582;28;20037;-56
2021/10/15 07:30:24;;;;;;;1999.90;999.90;;;;;;;14.61;68.08;100732.94;15675158;28;20072;-58
2021/10/15 07:37:59;;;;;;;1999.90;999.90;;;;;;;14.45;68.13;100726.47;15676055;28;20112;-61
2021/10/15 07:45:33;;;;;;;1999.90;999.90;;;;;;;14.77;67.91;100718.91;15676665;28;20049;-56
2021/10/15 07:53:06;;;;;;;1999.90;999.90;;;;;;;14.77;67.80;100721.72;15657690;28;20129;-61
2021/10/15 08:00:41;;;;;;;1999.90;999.90;;;;;;;14.57;68.48;100717.16;15673565;28;20049;-57
2021/10/15 08:08:13;;;;;;;1999.90;999.90;;;;;;;14.58;68.35;100725.22;15674130;28;20122;-58
2021/10/15 08:15:47;;;;;;;1999.90;999.90;;;;;;;14.74;67.81;100730.88;15672514;28;20465;-57
2021/10/15 08:23:20;;;;;;;1999.90;999.90;;;;;;;14.62;67.95;100728.97;15696992;22;20079;-60
2021/10/15 08:30:54;;;;;;;1999.90;999.90;;;;;;;14.91;67.31;100724.91;15672500;28;20091;-63
2021/10/15 08:38:27;;;;;;;1999.90;999.90;;;;;;;14.98;66.91;100719.44;15631914;28;20041;-62
2021/10/15 08:46:00;;;;;;;1999.90;999.90;;;;;;;15.01;66.85;100713.13;15605198;28;20533;-62
2021/10/15 08:53:44;;;;;;;1999.90;999.90;;;;;;;15.19;65.91;100712.72;15661246;28;20114;-61
2021/10/15 09:01:19;;;;;;;1999.90;999.90;;;;;;;15.20;64.84;100703.13;15679543;28;20099;-63
2021/10/15 09:08:54;;;;;;;1999.90;999.90;;;;;;;15.33;64.47;100698.22;15670152;28;20045;-61
2021/10/15 09:16:28;;;;;;;1999.90;999.90;;;;;;;15.54;64.04;100713.59;15679558;28;20039;-63
2021/10/15 09:24:01;;;;;;;1999.90;999.90;;;;;;;15.30;64.21;100720.25;15589529;28;20037;-63
2021/10/15 09:31:34;;;;;;;1999.90;999.90;;;;;;;15.56;63.97;100716.84;15624851;28;20057;-63
2021/10/15 09:39:26;;;;;;;1999.90;999.90;;;;;;;15.69;63.48;100717.56;15659319;28;20387;-63
2021/10/15 09:47:17;;;;;;;1999.90;999.90;;;;;;;15.87;63.05;100709.53;15676146;28;20098;-62
2021/10/15 09:54:55;;;;;;;1999.90;999.90;;;;;;;15.97;62.78;100705.31;15664244;28;20045;-62
2021/10/15 10:02:29;;;;;;;1999.90;999.90;;;;;;;15.85;62.58;100715.53;15630165;28;20045;-61
2021/10/15 10:10:05;;;;;;;1999.90;999.90;;;;;;;15.96;62.12;100715.75;15670294;28;20048;-62
2021/10/15 10:17:45;;;;;;;1999.90;999.90;;;;;;;15.55;62.74;100695.53;15687560;28;20436;-63
2021/10/15 10:25:22;;;;;;;1999.90;999.90;;;;;;;15.78;62.46;100687.22;15644725;28;20133;-61
2021/10/15 10:33:04;;;;;;;1999.90;999.90;;;;;;;15.77;62.72;100691.22;15608301;28;20084;-62
2021/10/15 10:40:37;;;;;;;1999.90;999.90;;;;;;;15.52;62.36;100699.06;15640361;28;20057;-59
2021/10/15 10:48:11;;;;;;;;;;;;;;;15.55;63.18;100691.91;15624411;28;20450;-61
2021/10/15 10:55:46;;;;;;;1999.90;999.90;;;;;;;15.34;65.47;100711.09;15623980;28;19921;-62
2021/10/15 11:03:33;;;;;;;1999.90;999.90;;;;;;;15.22;65.66;100715.66;15623614;28;20410;-62
2021/10/15 11:11:44;;;;;;;1999.90;999.90;;;;;;;15.10;65.32;100709.28;15635347;28;20052;-63
2021/10/15 11:19:20;;;;;;;1999.90;999.90;;;;;;;15.12;64.99;100712.56;15621507;28;20041;-61
2021/10/15 11:26:54;;;;;;;1999.90;999.90;;;;;;;14.96;65.26;100718.19;15600596;28;20103;-60
2021/10/15 11:34:28;;;;;;;1999.90;999.90;;;;;;;14.86;66.46;100722.34;15561320;28;20046;-60
2021/10/15 11:42:01;;;;;;;1999.90;999.90;;;;;;;14.75;68.61;100731.69;15560088;28;20046;-58
2021/10/15 11:49:39;;;;;;;1999.90;999.90;;;;;;;14.33;71.47;100734.94;15607572;28;20041;-60
2021/10/15 11:57:19;;;;;;;1999.90;999.90;;;;;;;14.41;73.20;100751.63;15620835;28;20433;-58
2021/10/15 12:04:57;;;;;;;1999.90;999.90;;;;;;;13.22;75.59;100801.59;15620477;28;20670;-59
2021/10/15 12:12:29;;;;;;;1999.90;999.90;;;;;;;12.97;75.59;100808.31;15619715;28;20092;-60
2021/10/15 12:20:05;;;;;;;1999.90;999.90;;;;;;;13.31;76.17;100820.31;15616392;28;20577;-60
2021/10/15 12:27:39;;;;;;;1999.90;999.90;;;;;;;13.01;75.93;100823.25;15601451;28;20060;-60
2021/10/15 12:35:18;;;;;;;1999.90;999.90;;;;;;;13.25;76.22;100830.94;15615754;28;20045;-61
2021/10/15 12:43:04;;;;;;;1999.90;999.90;;;;;;;13.56;76.05;100845.22;15618060;28;20049;-60
2021/10/15 12:50:40;;;;;;;1999.90;999.90;;;;;;;13.23;76.13;100848.09;15599485;28;20049;-60
2021/10/15 12:58:12;;;;;;;1999.90;999.90;;;;;;;13.31;75.79;100837.13;15600801;28;20536;-60
2021/10/15 13:05:47;;;;;;;1999.90;999.90;;;;;;;13.17;76.46;100857.84;15599929;28;20041;-61
2021/10/15 13:13:20;;;;;;;1999.90;999.90;;;;;;;13.25;76.83;100864.56;15583673;28;20050;-61
2021/10/15 13:20:53;;;;;;;1999.90;999.90;;;;;;;12.92;78.08;100889.75;15616283;28;20470;-63
2021/10/15 13:28:26;;;;;;;1999.90;999.90;;;;;;;12.73;78.66;100879.09;15595391;28;20088;-62
2021/10/15 13:36:01;;;;;;;1999.90;999.90;;;;;;;12.94;78.01;100898.66;15614794;28;20510;-60
2021/10/15 13:43:47;;;;;;;1999.90;999.90;;;;;;;12.50;79.64;100898.19;15616328;28;20410;-58
2021/10/15 13:51:23;;;;;;;1999.90;999.90;;;;;;;12.91;78.85;100921.72;15574702;28;20050;-59
2021/10/15 13:59:04;;;;;;;1999.90;999.90;;;;;;;13.03;78.59;100907.78;15615445;28;20038;-60
2021/10/15 14:06:38;;;;;;;1999.90;999.90;;;;;;;13.29;77.80;100935.56;15597776;28;20044;-60
2021/10/15 14:14:11;;;;;;;1999.90;999.90;;;;;;;13.29;77.72;100939.16;15597027;28;20115;-60
2021/10/15 14:21:46;;;;;;;1999.90;999.90;;;;;;;13.18;77.59;100940.75;15673399;22;20557;-73
2021/10/15 14:29:18;;;;;;;1999.90;999.90;;;;;;;13.32;77.08;100962.88;15675577;28;20075;-73
2021/10/15 14:36:52;;;;;;;1999.90;999.90;;;;;;;13.25;76.23;100982.25;15647609;22;20486;-55
2021/10/15 14:44:25;;;;;;;1999.90;999.90;;;;;;;13.43;75.51;100992.09;15611309;28;20502;-57
2021/10/15 14:52:00;;;;;;;1999.90;999.90;;;;;;;13.58;74.07;100987.84;15716418;22;20457;-59
2021/10/15 14:59:33;;;;;;;1999.90;999.90;;;;;;;13.32;74.10;100996.50;15725096;28;20717;-59
2021/10/15 15:07:07;;;;;;;1999.90;999.90;;;;;;;13.01;74.82;101008.94;15741801;28;20386;-59
2021/10/15 15:14:40;;;;;;;1999.90;999.90;;;;;;;13.13;74.17;101012.97;15741739;28;20048;-59
2021/10/15 15:22:14;;;;;;;1999.90;999.90;;;;;;;13.12;73.89;101026.16;15742090;28;20056;-60
2021/10/15 15:29:47;;;;;;;1999.90;999.90;;;;;;;13.18;74.33;101024.81;15663179;28;20505;-59
2021/10/15 15:37:22;;;;;;;1999.90;999.90;;;;;;;13.10;74.82;101038.88;15679307;28;20048;-58
2021/10/15 15:44:57;;;;;;;1999.90;999.90;;;;;;;12.95;74.71;101059.94;15660071;28;20578;-58
2021/10/15 15:52:31;;;;;;;1999.90;999.90;;;;;;;13.05;74.63;101065.13;15677452;28;20049;-58
2021/10/15 16:00:05;;;;;;;1999.90;999.90;;;;;;;13.01;74.79;101086.56;15720659;28;20086;-60
2021/10/15 16:07:47;;;;;;;1999.90;999.90;;;;;;;12.65;75.80;101095.53;15744600;28;20112;-61
2021/10/15 16:15:27;;;;;;;1999.90;999.90;;;;;;;12.70;75.53;101093.34;15746627;28;20299;-60
2021/10/15 16:23:01;;;;;;;1999.90;999.90;;;;;;;12.57;75.75;101105.63;15739292;28;20106;-59
2021/10/15 16:30:33;;;;;;;1999.90;999.90;;;;;;;12.40;76.25;101125.28;15714082;28;20048;-58
2021/10/15 16:38:07;;;;;;;1999.90;999.90;;;;;;;12.39;76.31;101138.47;15725965;28;20122;-58
2021/10/15 16:45:40;;;;;;;1999.90;999.90;;;;;;;12.11;76.67;101143.69;15718527;28;20040;-60
2021/10/15 16:53:13;;;;;;;1999.90;999.90;;;;;;;12.02;77.30;101150.44;15737206;28;20049;-59
2021/10/15 17:00:46;;;;;;;1999.90;999.90;;;;;;;11.91;76.97;101160.34;15736236;28;20048;-59
2021/10/15 17:08:20;;;;;;;1999.90;999.90;;;;;;;11.92;77.19;101173.16;15700436;28;20112;-54
2021/10/15 17:15:53;;;;;;;1999.90;999.90;;;;;;;11.80;77.61;101177.44;15729541;28;20048;-60
2021/10/15 17:23:28;;;;;;;1999.90;999.90;;;;;;;11.81;76.76;101179.09;15736049;28;20524;-59
2021/10/15 17:31:00;;;;;;;1999.90;999.90;;;;;;;11.65;77.80;101191.06;15736168;28;20409;-62
2021/10/15 17:38:34;;;;;;;1999.90;999.90;;;;;;;11.62;77.75;101200.94;15787088;28;20477;-57
2021/10/15 17:46:07;;;;;;;1999.90;999.90;;;;;;;11.53;77.91;101208.47;15797921;28;20072;-59
2021/10/15 17:53:41;;;;;;;1999.90;999.90;;;;;;;11.48;78.09;101205.88;15797391;28;20097;-57
2021/10/15 18:01:14;;;;;;;1999.90;999.90;;;;;;;11.40;77.64;101218.66;15751444;28;20110;-59
2021/10/15 18:08:47;;;;;;;1999.90;999.90;;;;;;;11.27;78.01;101219.63;15734458;28;20049;-58
2021/10/15 18:16:20;;;;;;;1999.90;999.90;;;;;;;11.21;77.73;101238.50;15757248;28;20389;-60
2021/10/15 18:23:54;;;;;;;1999.90;999.90;;;;;;;11.11;78.10;101249.16;15760182;28;20048;-62
2021/10/15 18:31:26;;;;;;;1999.90;999.90;;;;;;;11.05;78.03;101247.69;15770979;28;20198;-59
2021/10/15 18:39:00;;;;;;;1999.90;999.90;;;;;;;11.05;77.71;101248.50;15729200;28;20032;-61
2021/10/15 18:46:33;;;;;;;1999.90;999.90;;;;;;;11.06;77.79;101254.91;15761159;28;20485;-61
2021/10/15 18:54:08;;;;;;;1999.90;999.90;;;;;;;11.19;77.32;101262.34;15743803;28;20052;-60
2021/10/15 19:01:41;;;;;;;1999.90;999.90;;;;;;;11.11;77.91;101269.53;15736138;28;20045;-61
2021/10/15 19:09:14;;;;;;;1999.90;999.90;;;;;;;11.26;77.13;101279.47;15744313;28;20224;-62
2021/10/15 19:16:47;;;;;;;1999.90;999.90;;;;;;;11.17;76.39;101295.38;15753140;28;20385;-61
2021/10/15 19:24:21;;;;;;;1999.90;999.90;;;;;;;11.22;76.61;101309.16;15754377;28;20066;-59
2021/10/15 19:31:59;;;;;;;1999.90;999.90;;;;;;;11.18;76.37;101322.16;15754497;28;20397;-59
2021/10/15 19:39:35;;;;;;;1999.90;999.90;;;;;;;11.13;76.37;101325.88;15748317;28;20101;-60
2021/10/15 19:47:09;;;;;;;1999.90;999.90;;;;;;;11.20;76.43;101323.47;15732726;28;20504;-59
2021/10/15 19:54:43;;;;;;;1999.90;999.90;;;;;;;11.10;76.25;101334.09;15722787;28;20161;-57
2021/10/15 20:02:16;;;;;;;1999.90;999.90;;;;;;;11.06;76.27;101347.91;15741469;28;20147;-60
2021/10/15 20:09:50;;;;;;;1999.90;999.90;;;;;;;11.06;75.91;101338.69;15744303;28;20101;-59
2021/10/15 20:17:22;;;;;;;1999.90;999.90;;;;;;;10.87;76.07;101356.50;15736076;28;20044;-59
2021/10/15 20:24:56;;;;;;;1999.90;999.90;;;;;;;10.93;76.31;101355.19;15744420;28;20044;-59
2021/10/15 20:32:28;;;;;;;1999.90;999.90;;;;;;;10.81;76.12;101363.34;15755614;28;20067;-60
2021/10/15 20:40:03;;;;;;;1999.90;999.90;;;;;;;10.68;76.64;101384.59;15741964;28;20075;-59
2021/10/15 20:47:37;;;;;;;1999.90;999.90;;;;;;;10.69;76.95;101380.66;15792128;28;20570;-58
2021/10/15 20:55:11;;;;;;;1999.90;999.90;;;;;;;10.90;76.37;101385.72;15744274;28;20041;-61
2021/10/15 21:02:44;;;;;;;1999.90;999.90;;;;;;;10.55;76.77;101399.47;15732158;28;20073;-58
2021/10/15 21:10:18;;;;;;;1999.90;999.90;;;;;;;10.69;76.74;101408.59;15759228;28;20110;-60
2021/10/15 21:17:51;;;;;;;1999.90;999.90;;;;;;;10.63;76.44;101409.06;15767088;28;20048;-58
2021/10/15 21:25:25;;;;;;;1999.90;999.90;;;;;;;10.58;76.89;101417.53;15748787;28;20407;-56
2021/10/15 21:32:57;;;;;;;1999.90;999.90;;;;;;;10.69;75.83;101421.72;15768291;28;20044;-60
2021/10/15 21:40:32;;;;;;;1999.90;999.90;;;;;;;10.62;75.97;101419.34;15768344;28;20140;-60
2021/10/15 21:48:05;;;;;;;1999.90;999.90;;;;;;;10.53;76.14;101434.41;15758915;28;20036;-60
2021/10/15 21:55:39;;;;;;;1999.90;999.90;;;;;;;10.43;76.27;101413.16;15762882;28;20052;-61
2021/10/15 22:03:11;;;;;;;1999.90;999.90;;;;;;;10.35;76.41;101423.09;15773984;28;20115;-59
2021/10/15 22:10:45;;;;;;;1999.90;999.90;;;;;;;10.39;76.07;101432.47;15769279;28;20045;-60
2021/10/15 22:18:18;;;;;;;1999.90;999.90;;;;;;;10.19;76.11;101432.06;15732836;28;20458;-60
2021/10/15 22:25:52;;;;;;;1999.90;999.90;;;;;;;10.19;76.52;101438.47;15763803;28;20048;-59
2021/10/15 22:33:25;;;;;;;1999.90;999.90;;;;;;;9.81;77.60;101433.16;15789529;28;20158;-60
2021/10/15 22:40:59;;;;;;;1999.90;999.90;;;;;;;9.94;77.71;101430.69;15798776;28;20047;-59
2021/10/15 22:48:31;;;;;;;;;;;;;;;9.96;77.63;101442.34;15784484;28;20106;-60
2021/10/15 22:56:07;;;;;;;1999.90;999.90;;;;;;;9.94;77.71;101447.41;15767373;28;20011;-59
2021/10/15 23:03:39;;;;;;;1999.90;999.90;;;;;;;9.73;78.10;101450.63;15730984;28;20032;-59
2021/10/15 23:11:14;;;;;;;1999.90;999.90;;;;;;;9.72;78.00;101454.53;15767614;28;20068;-60
2021/10/15 23:18:48;;;;;;;1999.90;999.90;;;;;;;9.82;77.34;101448.75;15716128;28;20112;-59
2021/10/15 23:26:21;;;;;;;1999.90;999.90;;;;;;;9.77;77.72;101468.34;15745046;28;20450;-58
2021/10/15 23:33:54;;;;;;;1999.90;999.90;;;;;;;9.60;78.04;101470.94;15744119;28;20045;-60
2021/10/15 23:41:28;;;;;;;1999.90;999.90;;;;;;;9.69;77.76;101488.59;15714318;28;20052;-58
2021/10/15 23:49:01;;;;;;;1999.90;999.90;;;;;;;9.65;77.59;101489.50;15719295;28;20087;-59
2021/10/15 23:56:35;;;;;;;1999.90;999.90;;;;;;;9.60;78.45;101495.19;15738069;28;20122;-58
